sensor_id;sensor_type;location;lat;lon;timestamp;temperature;humidity
19192;DHT22;9728;48.194;16.346;2022-07-29T00:04:45;31.20;33.10
19192;DHT22;9728;48.194;16.346;2022-07-29T00:09:48;31.20;33.10
19192;DHT22;9728;48.194;16.346;2022-07-29T00:14:55;31.20;33.00
19192;DHT22;9728;48.194;16.346;2022-07-29T00:19:59;31.20;33.10
19192;DHT22;9728;48.194;16.346;2022-07-29T00:25:03;31.10;32.80
19192;DHT22;9728;48.194;16.346;2022-07-29T00:30:08;31.10;32.90
19192;DHT22;9728;48.194;16.346;2022-07-29T00:35:12;31.00;32.80
19192;DHT22;9728;48.194;16.346;2022-07-29T00:40:34;31.00;32.80
19192;DHT22;9728;48.194;16.346;2022-07-29T00:45:42;30.90;32.80
19192;DHT22;9728;48.194;16.346;2022-07-29T00:50:45;30.80;32.90
19192;DHT22;9728;48.194;16.346;2022-07-29T00:55:49;30.80;33.10
19192;DHT22;9728;48.194;16.346;2022-07-29T01:00:55;30.70;33.20
19192;DHT22;9728;48.194;16.346;2022-07-29T01:05:59;30.60;33.30
19192;DHT22;9728;48.194;16.346;2022-07-29T01:11:03;30.50;33.30
19192;DHT22;9728;48.194;16.346;2022-07-29T01:16:13;30.50;33.40
19192;DHT22;9728;48.194;16.346;2022-07-29T01:26:59;30.40;33.90
19192;DHT22;9728;48.194;16.346;2022-07-29T01:32:12;30.40;34.00
19192;DHT22;9728;48.194;16.346;2022-07-29T01:37:35;30.40;34.10
19192;DHT22;9728;48.194;16.346;2022-07-29T01:42:43;30.40;34.30
19192;DHT22;9728;48.194;16.346;2022-07-29T01:47:56;30.50;34.30
19192;DHT22;9728;48.194;16.346;2022-07-29T01:53:02;30.50;34.40
19192;DHT22;9728;48.194;16.346;2022-07-29T01:58:07;30.50;34.40
19192;DHT22;9728;48.194;16.346;2022-07-29T02:03:13;30.50;34.40
19192;DHT22;9728;48.194;16.346;2022-07-29T02:08:19;30.50;34.40
19192;DHT22;9728;48.194;16.346;2022-07-29T02:13:23;30.60;34.30
19192;DHT22;9728;48.194;16.346;2022-07-29T02:18:30;30.60;34.30
19192;DHT22;9728;48.194;16.346;2022-07-29T02:23:36;30.60;34.50
19192;DHT22;9728;48.194;16.346;2022-07-29T02:28:55;30.60;34.40
19192;DHT22;9728;48.194;16.346;2022-07-29T02:34:02;30.60;34.50
19192;DHT22;9728;48.194;16.346;2022-07-29T02:39:08;30.60;34.60
19192;DHT22;9728;48.194;16.346;2022-07-29T02:44:14;30.60;34.60
19192;DHT22;9728;48.194;16.346;2022-07-29T02:49:33;30.60;34.60
19192;DHT22;9728;48.194;16.346;2022-07-29T02:54:49;30.60;34.80
19192;DHT22;9728;48.194;16.346;2022-07-29T02:59:57;30.60;35.40
19192;DHT22;9728;48.194;16.346;2022-07-29T03:05:03;30.60;34.70
19192;DHT22;9728;48.194;16.346;2022-07-29T03:10:10;30.60;34.80
19192;DHT22;9728;48.194;16.346;2022-07-29T03:15:14;30.60;34.80
19192;DHT22;9728;48.194;16.346;2022-07-29T03:20:20;30.60;34.80
19192;DHT22;9728;48.194;16.346;2022-07-29T03:25:23;30.60;34.90
19192;DHT22;9728;48.194;16.346;2022-07-29T03:30:28;30.60;34.90
19192;DHT22;9728;48.194;16.346;2022-07-29T03:35:34;30.60;35.00
19192;DHT22;9728;48.194;16.346;2022-07-29T03:40:40;30.60;35.00
19192;DHT22;9728;48.194;16.346;2022-07-29T03:45:48;30.60;35.00
19192;DHT22;9728;48.194;16.346;2022-07-29T03:50:54;30.60;35.10
19192;DHT22;9728;48.194;16.346;2022-07-29T03:55:59;30.60;35.10
19192;DHT22;9728;48.194;16.346;2022-07-29T04:01:05;30.60;35.10
19192;DHT22;9728;48.194;16.346;2022-07-29T04:06:09;30.60;35.00
19192;DHT22;9728;48.194;16.346;2022-07-29T04:11:13;30.60;35.10
19192;DHT22;9728;48.194;16.346;2022-07-29T04:16:16;30.60;35.10
19192;DHT22;9728;48.194;16.346;2022-07-29T04:21:21;30.60;35.10
19192;DHT22;9728;48.194;16.346;2022-07-29T04:26:25;30.60;35.20
19192;DHT22;9728;48.194;16.346;2022-07-29T04:31:28;30.60;35.20
19192;DHT22;9728;48.194;16.346;2022-07-29T04:36:33;30.70;35.30
19192;DHT22;9728;48.194;16.346;2022-07-29T04:41:36;30.60;35.30
19192;DHT22;9728;48.194;16.346;2022-07-29T04:46:40;30.70;35.40
19192;DHT22;9728;48.194;16.346;2022-07-29T04:51:45;30.70;36.10
19192;DHT22;9728;48.194;16.346;2022-07-29T04:56:48;30.70;35.40
19192;DHT22;9728;48.194;16.346;2022-07-29T05:01:51;30.70;35.40
19192;DHT22;9728;48.194;16.346;2022-07-29T05:06:56;30.70;35.40
19192;DHT22;9728;48.194;16.346;2022-07-29T05:12:00;30.70;35.50
19192;DHT22;9728;48.194;16.346;2022-07-29T05:17:03;30.80;35.50
19192;DHT22;9728;48.194;16.346;2022-07-29T05:22:08;30.80;35.50
19192;DHT22;9728;48.194;16.346;2022-07-29T05:27:12;30.80;35.50
19192;DHT22;9728;48.194;16.346;2022-07-29T05:32:15;30.80;36.20
19192;DHT22;9728;48.194;16.346;2022-07-29T05:37:20;30.80;35.60
19192;DHT22;9728;48.194;16.346;2022-07-29T05:42:24;30.90;35.80
19192;DHT22;9728;48.194;16.346;2022-07-29T05:47:27;30.90;35.70
19192;DHT22;9728;48.194;16.346;2022-07-29T05:52:32;31.00;35.70
19192;DHT22;9728;48.194;16.346;2022-07-29T05:57:35;31.00;35.60
19192;DHT22;9728;48.194;16.346;2022-07-29T06:02:38;31.10;35.60
19192;DHT22;9728;48.194;16.346;2022-07-29T06:07:43;31.10;35.50
19192;DHT22;9728;48.194;16.346;2022-07-29T06:12:52;31.10;35.50
19192;DHT22;9728;48.194;16.346;2022-07-29T06:17:56;31.20;35.60
19192;DHT22;9728;48.194;16.346;2022-07-29T06:23:03;31.20;35.60
19192;DHT22;9728;48.194;16.346;2022-07-29T06:28:07;31.30;35.60
19192;DHT22;9728;48.194;16.346;2022-07-29T06:33:16;31.30;35.50
19192;DHT22;9728;48.194;16.346;2022-07-29T06:38:21;31.30;35.50
19192;DHT22;9728;48.194;16.346;2022-07-29T06:43:36;31.40;35.60
19192;DHT22;9728;48.194;16.346;2022-07-29T06:48:52;31.40;35.50
19192;DHT22;9728;48.194;16.346;2022-07-29T06:53:57;31.50;35.40
19192;DHT22;9728;48.194;16.346;2022-07-29T06:59:04;31.50;35.40
19192;DHT22;9728;48.194;16.346;2022-07-29T07:04:07;31.50;35.30
19192;DHT22;9728;48.194;16.346;2022-07-29T07:09:13;31.60;35.30
19192;DHT22;9728;48.194;16.346;2022-07-29T07:14:16;31.60;35.40
19192;DHT22;9728;48.194;16.346;2022-07-29T07:19:20;31.60;35.30
19192;DHT22;9728;48.194;16.346;2022-07-29T07:24:25;31.60;35.30
19192;DHT22;9728;48.194;16.346;2022-07-29T07:29:28;31.60;35.30
19192;DHT22;9728;48.194;16.346;2022-07-29T07:34:31;31.60;35.30
19192;DHT22;9728;48.194;16.346;2022-07-29T07:39:36;31.60;35.40
19192;DHT22;9728;48.194;16.346;2022-07-29T07:44:40;31.70;35.50
19192;DHT22;9728;48.194;16.346;2022-07-29T07:50:04;31.70;35.50
19192;DHT22;9728;48.194;16.346;2022-07-29T07:55:10;31.70;35.50
19192;DHT22;9728;48.194;16.346;2022-07-29T08:00:15;31.80;35.50
19192;DHT22;9728;48.194;16.346;2022-07-29T08:05:18;31.80;35.40
19192;DHT22;9728;48.194;16.346;2022-07-29T08:10:23;31.90;35.50
19192;DHT22;9728;48.194;16.346;2022-07-29T08:15:45;32.00;35.60
19192;DHT22;9728;48.194;16.346;2022-07-29T08:20:48;31.90;35.70
19192;DHT22;9728;48.194;16.346;2022-07-29T08:25:53;32.00;35.70
19192;DHT22;9728;48.194;16.346;2022-07-29T08:30:56;32.10;35.80
19192;DHT22;9728;48.194;16.346;2022-07-29T08:36:00;32.20;35.80
19192;DHT22;9728;48.194;16.346;2022-07-29T08:41:05;32.30;35.80
19192;DHT22;9728;48.194;16.346;2022-07-29T08:46:09;32.30;35.60
19192;DHT22;9728;48.194;16.346;2022-07-29T08:51:13;32.50;35.60
19192;DHT22;9728;48.194;16.346;2022-07-29T08:56:20;32.50;35.60
19192;DHT22;9728;48.194;16.346;2022-07-29T09:01:27;32.60;35.60
19192;DHT22;9728;48.194;16.346;2022-07-29T09:06:45;32.80;35.40
19192;DHT22;9728;48.194;16.346;2022-07-29T09:11:50;32.90;35.30
19192;DHT22;9728;48.194;16.346;2022-07-29T09:16:56;33.00;35.10
19192;DHT22;9728;48.194;16.346;2022-07-29T09:22:00;33.10;35.10
19192;DHT22;9728;48.194;16.346;2022-07-29T09:27:10;33.20;35.10
19192;DHT22;9728;48.194;16.346;2022-07-29T09:32:14;33.30;35.00
19192;DHT22;9728;48.194;16.346;2022-07-29T09:37:26;33.40;35.10
19192;DHT22;9728;48.194;16.346;2022-07-29T09:42:31;33.60;35.10
19192;DHT22;9728;48.194;16.346;2022-07-29T09:47:43;33.80;35.10
19192;DHT22;9728;48.194;16.346;2022-07-29T09:52:52;33.90;34.50
19192;DHT22;9728;48.194;16.346;2022-07-29T09:58:14;34.00;34.40
19192;DHT22;9728;48.194;16.346;2022-07-29T10:03:18;34.10;34.00
19192;DHT22;9728;48.194;16.346;2022-07-29T10:08:25;34.10;34.00
19192;DHT22;9728;48.194;16.346;2022-07-29T10:13:30;34.20;34.00
19192;DHT22;9728;48.194;16.346;2022-07-29T10:18:34;34.30;34.20
19192;DHT22;9728;48.194;16.346;2022-07-29T10:23:37;34.30;34.10
19192;DHT22;9728;48.194;16.346;2022-07-29T10:28:49;34.50;34.10
19192;DHT22;9728;48.194;16.346;2022-07-29T10:34:02;34.60;33.90
19192;DHT22;9728;48.194;16.346;2022-07-29T10:39:17;34.80;33.60
19192;DHT22;9728;48.194;16.346;2022-07-29T10:44:25;35.00;33.50
19192;DHT22;9728;48.194;16.346;2022-07-29T10:49:29;35.20;33.30
19192;DHT22;9728;48.194;16.346;2022-07-29T10:54:47;35.30;33.10
19192;DHT22;9728;48.194;16.346;2022-07-29T11:05:29;35.60;32.00
19192;DHT22;9728;48.194;16.346;2022-07-29T11:10:41;35.60;32.20
19192;DHT22;9728;48.194;16.346;2022-07-29T11:15:55;35.60;32.10
19192;DHT22;9728;48.194;16.346;2022-07-29T11:21:00;35.60;31.90
19192;DHT22;9728;48.194;16.346;2022-07-29T11:26:18;35.60;32.20
19192;DHT22;9728;48.194;16.346;2022-07-29T11:31:35;35.60;31.80
19192;DHT22;9728;48.194;16.346;2022-07-29T11:37:15;35.60;31.60
19192;DHT22;9728;48.194;16.346;2022-07-29T11:42:40;35.60;31.60
19192;DHT22;9728;48.194;16.346;2022-07-29T11:47:51;35.60;31.60
19192;DHT22;9728;48.194;16.346;2022-07-29T11:52:58;35.60;31.70
19192;DHT22;9728;48.194;16.346;2022-07-29T11:58:09;35.70;32.00
19192;DHT22;9728;48.194;16.346;2022-07-29T12:03:26;35.80;31.90
19192;DHT22;9728;48.194;16.346;2022-07-29T12:08:41;36.00;31.50
19192;DHT22;9728;48.194;16.346;2022-07-29T12:13:46;36.10;31.50
19192;DHT22;9728;48.194;16.346;2022-07-29T12:18:58;36.30;31.60
19192;DHT22;9728;48.194;16.346;2022-07-29T12:24:06;36.40;31.10
19192;DHT22;9728;48.194;16.346;2022-07-29T12:29:15;36.40;31.10
19192;DHT22;9728;48.194;16.346;2022-07-29T12:34:23;36.60;31.20
19192;DHT22;9728;48.194;16.346;2022-07-29T12:39:28;36.70;31.20
19192;DHT22;9728;48.194;16.346;2022-07-29T12:44:45;36.80;30.70
19192;DHT22;9728;48.194;16.346;2022-07-29T12:49:50;36.80;30.20
19192;DHT22;9728;48.194;16.346;2022-07-29T12:54:58;36.90;30.30
19192;DHT22;9728;48.194;16.346;2022-07-29T13:00:07;36.80;30.00
19192;DHT22;9728;48.194;16.346;2022-07-29T13:05:12;36.80;30.00
19192;DHT22;9728;48.194;16.346;2022-07-29T13:10:18;36.70;30.10
19192;DHT22;9728;48.194;16.346;2022-07-29T13:15:25;36.60;30.00
19192;DHT22;9728;48.194;16.346;2022-07-29T13:20:30;36.40;30.00
19192;DHT22;9728;48.194;16.346;2022-07-29T13:25:35;36.40;30.10
19192;DHT22;9728;48.194;16.346;2022-07-29T13:30:43;36.20;30.20
19192;DHT22;9728;48.194;16.346;2022-07-29T13:35:46;36.10;30.40
19192;DHT22;9728;48.194;16.346;2022-07-29T13:40:52;35.90;30.50
19192;DHT22;9728;48.194;16.346;2022-07-29T13:45:55;35.70;30.70
19192;DHT22;9728;48.194;16.346;2022-07-29T13:50:59;35.60;31.10
19192;DHT22;9728;48.194;16.346;2022-07-29T13:56:04;35.30;31.30
19192;DHT22;9728;48.194;16.346;2022-07-29T14:01:08;35.20;31.80
19192;DHT22;9728;48.194;16.346;2022-07-29T14:06:12;35.00;31.90
19192;DHT22;9728;48.194;16.346;2022-07-29T14:11:17;34.70;32.40
19192;DHT22;9728;48.194;16.346;2022-07-29T14:16:20;34.50;32.80
19192;DHT22;9728;48.194;16.346;2022-07-29T14:21:24;34.30;33.40
19192;DHT22;9728;48.194;16.346;2022-07-29T14:26:29;34.10;33.70
19192;DHT22;9728;48.194;16.346;2022-07-29T14:31:33;33.90;34.20
19192;DHT22;9728;48.194;16.346;2022-07-29T14:36:36;33.80;34.40
19192;DHT22;9728;48.194;16.346;2022-07-29T14:41:41;33.60;34.70
19192;DHT22;9728;48.194;16.346;2022-07-29T14:46:45;33.40;35.20
19192;DHT22;9728;48.194;16.346;2022-07-29T14:51:50;33.20;35.40
19192;DHT22;9728;48.194;16.346;2022-07-29T14:56:55;33.10;36.20
19192;DHT22;9728;48.194;16.346;2022-07-29T15:01:59;32.90;37.10
19192;DHT22;9728;48.194;16.346;2022-07-29T15:07:04;32.70;37.00
19192;DHT22;9728;48.194;16.346;2022-07-29T15:12:09;32.60;37.10
19192;DHT22;9728;48.194;16.346;2022-07-29T15:17:13;32.40;37.80
19192;DHT22;9728;48.194;16.346;2022-07-29T15:22:17;32.30;37.80
19192;DHT22;9728;48.194;16.346;2022-07-29T15:27:22;32.20;38.40
19192;DHT22;9728;48.194;16.346;2022-07-29T15:32:26;32.00;39.00
19192;DHT22;9728;48.194;16.346;2022-07-29T15:37:29;32.00;39.10
19192;DHT22;9728;48.194;16.346;2022-07-29T15:42:51;31.90;39.50
19192;DHT22;9728;48.194;16.346;2022-07-29T15:47:55;31.80;40.00
19192;DHT22;9728;48.194;16.346;2022-07-29T15:52:58;31.70;40.20
19192;DHT22;9728;48.194;16.346;2022-07-29T15:58:03;31.60;40.30
19192;DHT22;9728;48.194;16.346;2022-07-29T16:03:06;31.60;40.80
19192;DHT22;9728;48.194;16.346;2022-07-29T16:08:10;31.50;40.90
19192;DHT22;9728;48.194;16.346;2022-07-29T16:13:14;31.50;41.00
19192;DHT22;9728;48.194;16.346;2022-07-29T16:18:19;31.40;41.10
19192;DHT22;9728;48.194;16.346;2022-07-29T16:23:31;31.40;41.30
19192;DHT22;9728;48.194;16.346;2022-07-29T16:28:37;31.40;41.30
19192;DHT22;9728;48.194;16.346;2022-07-29T16:33:40;31.40;41.50
19192;DHT22;9728;48.194;16.346;2022-07-29T16:38:56;31.40;41.50
19192;DHT22;9728;48.194;16.346;2022-07-29T16:44:02;31.40;41.60
19192;DHT22;9728;48.194;16.346;2022-07-29T16:49:05;31.40;41.80
19192;DHT22;9728;48.194;16.346;2022-07-29T16:54:09;31.50;41.80
19192;DHT22;9728;48.194;16.346;2022-07-29T16:59:14;31.50;41.80
19192;DHT22;9728;48.194;16.346;2022-07-29T17:04:17;31.50;41.90
19192;DHT22;9728;48.194;16.346;2022-07-29T17:09:23;31.60;42.10
19192;DHT22;9728;48.194;16.346;2022-07-29T17:14:29;31.60;42.00
19192;DHT22;9728;48.194;16.346;2022-07-29T17:19:34;31.60;42.30
19192;DHT22;9728;48.194;16.346;2022-07-29T17:24:38;31.60;42.10
19192;DHT22;9728;48.194;16.346;2022-07-29T17:29:44;31.60;41.90
19192;DHT22;9728;48.194;16.346;2022-07-29T17:34:47;31.60;42.00
19192;DHT22;9728;48.194;16.346;2022-07-29T17:39:51;31.60;41.90
19192;DHT22;9728;48.194;16.346;2022-07-29T17:45:02;31.60;41.80
19192;DHT22;9728;48.194;16.346;2022-07-29T17:50:06;31.60;41.90
19192;DHT22;9728;48.194;16.346;2022-07-29T17:55:10;31.50;41.80
19192;DHT22;9728;48.194;16.346;2022-07-29T18:00:16;31.50;41.80
19192;DHT22;9728;48.194;16.346;2022-07-29T18:05:20;31.50;42.30
19192;DHT22;9728;48.194;16.346;2022-07-29T18:10:24;31.40;41.90
19192;DHT22;9728;48.194;16.346;2022-07-29T18:15:28;31.30;42.10
19192;DHT22;9728;48.194;16.346;2022-07-29T18:20:32;31.30;42.30
19192;DHT22;9728;48.194;16.346;2022-07-29T18:25:36;31.30;42.30
19192;DHT22;9728;48.194;16.346;2022-07-29T18:30:41;31.20;42.20
19192;DHT22;9728;48.194;16.346;2022-07-29T18:35:48;31.20;42.60
19192;DHT22;9728;48.194;16.346;2022-07-29T18:40:52;31.10;42.50
19192;DHT22;9728;48.194;16.346;2022-07-29T18:45:56;31.10;42.60
19192;DHT22;9728;48.194;16.346;2022-07-29T18:51:00;31.00;42.90
19192;DHT22;9728;48.194;16.346;2022-07-29T18:56:10;31.00;42.90
19192;DHT22;9728;48.194;16.346;2022-07-29T19:01:15;31.00;43.10
19192;DHT22;9728;48.194;16.346;2022-07-29T19:06:18;30.90;43.60
19192;DHT22;9728;48.194;16.346;2022-07-29T19:11:26;30.80;43.30
19192;DHT22;9728;48.194;16.346;2022-07-29T19:16:31;30.80;43.50
19192;DHT22;9728;48.194;16.346;2022-07-29T19:21:34;30.70;43.70
19192;DHT22;9728;48.194;16.346;2022-07-29T19:26:38;30.70;43.60
19192;DHT22;9728;48.194;16.346;2022-07-29T19:31:48;30.60;43.60
19192;DHT22;9728;48.194;16.346;2022-07-29T19:36:52;30.60;43.90
19192;DHT22;9728;48.194;16.346;2022-07-29T19:41:55;30.60;44.00
19192;DHT22;9728;48.194;16.346;2022-07-29T19:47:05;30.50;44.00
19192;DHT22;9728;48.194;16.346;2022-07-29T19:52:08;30.50;44.20
19192;DHT22;9728;48.194;16.346;2022-07-29T19:57:12;30.50;44.00
19192;DHT22;9728;48.194;16.346;2022-07-29T20:02:17;30.50;44.20
19192;DHT22;9728;48.194;16.346;2022-07-29T20:07:20;30.40;44.50
19192;DHT22;9728;48.194;16.346;2022-07-29T20:12:24;30.40;44.50
19192;DHT22;9728;48.194;16.346;2022-07-29T20:17:28;30.50;44.70
19192;DHT22;9728;48.194;16.346;2022-07-29T20:22:32;30.50;44.80
19192;DHT22;9728;48.194;16.346;2022-07-29T20:27:36;30.50;44.70
19192;DHT22;9728;48.194;16.346;2022-07-29T20:32:42;30.60;44.80
19192;DHT22;9728;48.194;16.346;2022-07-29T20:37:46;30.60;44.70
19192;DHT22;9728;48.194;16.346;2022-07-29T20:42:57;30.60;44.60
19192;DHT22;9728;48.194;16.346;2022-07-29T20:48:02;30.60;44.60
19192;DHT22;9728;48.194;16.346;2022-07-29T20:53:05;30.70;44.90
19192;DHT22;9728;48.194;16.346;2022-07-29T20:58:09;30.70;44.80
19192;DHT22;9728;48.194;16.346;2022-07-29T21:03:14;30.70;45.00
19192;DHT22;9728;48.194;16.346;2022-07-29T21:08:19;30.60;45.00
19192;DHT22;9728;48.194;16.346;2022-07-29T21:13:22;30.60;44.70
19192;DHT22;9728;48.194;16.346;2022-07-29T21:18:27;30.60;44.70
19192;DHT22;9728;48.194;16.346;2022-07-29T21:23:33;30.50;45.00
19192;DHT22;9728;48.194;16.346;2022-07-29T21:28:37;30.50;44.90
19192;DHT22;9728;48.194;16.346;2022-07-29T21:33:44;30.50;44.80
19192;DHT22;9728;48.194;16.346;2022-07-29T21:38:47;30.50;45.10
19192;DHT22;9728;48.194;16.346;2022-07-29T21:43:51;30.50;45.00
19192;DHT22;9728;48.194;16.346;2022-07-29T21:49:00;30.50;45.00
19192;DHT22;9728;48.194;16.346;2022-07-29T21:54:04;30.50;45.20
19192;DHT22;9728;48.194;16.346;2022-07-29T21:59:09;30.50;45.00
19192;DHT22;9728;48.194;16.346;2022-07-29T22:04:15;30.60;45.10
19192;DHT22;9728;48.194;16.346;2022-07-29T22:09:18;30.60;45.10
19192;DHT22;9728;48.194;16.346;2022-07-29T22:14:22;30.60;44.90
19192;DHT22;9728;48.194;16.346;2022-07-29T22:19:27;30.60;44.80
19192;DHT22;9728;48.194;16.346;2022-07-29T22:24:31;30.60;44.90
19192;DHT22;9728;48.194;16.346;2022-07-29T22:29:35;30.60;44.80
19192;DHT22;9728;48.194;16.346;2022-07-29T22:34:39;30.60;44.90
19192;DHT22;9728;48.194;16.346;2022-07-29T22:39:43;30.60;45.00
19192;DHT22;9728;48.194;16.346;2022-07-29T22:44:47;30.60;44.90
19192;DHT22;9728;48.194;16.346;2022-07-29T22:49:51;30.50;45.50
19192;DHT22;9728;48.194;16.346;2022-07-29T22:54:55;30.50;44.90
19192;DHT22;9728;48.194;16.346;2022-07-29T22:59:58;30.50;44.80
19192;DHT22;9728;48.194;16.346;2022-07-29T23:05:06;30.50;44.80
19192;DHT22;9728;48.194;16.346;2022-07-29T23:10:11;30.50;45.00
19192;DHT22;9728;48.194;16.346;2022-07-29T23:15:14;30.50;44.80
19192;DHT22;9728;48.194;16.346;2022-07-29T23:20:20;30.50;44.80
19192;DHT22;9728;48.194;16.346;2022-07-29T23:25:23;30.50;44.90
19192;DHT22;9728;48.194;16.346;2022-07-29T23:30:27;30.50;44.80
19192;DHT22;9728;48.194;16.346;2022-07-29T23:35:32;30.50;44.80
19192;DHT22;9728;48.194;16.346;2022-07-29T23:40:35;30.50;44.80
19192;DHT22;9728;48.194;16.346;2022-07-29T23:45:39;30.50;44.50
19192;DHT22;9728;48.194;16.346;2022-07-29T23:50:47;30.50;44.60
19192;DHT22;9728;48.194;16.346;2022-07-29T23:55:51;30.40;44.60
